Time;durP1;ratioP1;P1;durP2;ratioP2;P2;SDS_P1;SDS_P2;PMS_P1;PMS_P2;Temp;Humidity;BMP_temperature;BMP_pressure;BME280_temperature;BME280_humidity;BME280_pressure;Samples;Min_cycle;Max_cycle;Signal;HPM_P1;HPM_P2
2024/01/14 00:01:42;;;;;;;;;;;17.10;60.90;;;;;;5039911;28;1006;-68
2024/01/14 00:04:07;;;;;;;;;;;17.10;61.00;;;;;;5041656;28;1713;-70
2024/01/14 00:06:33;;;;;;;;;;;17.10;61.00;;;;;;5040331;28;1609;-68
2024/01/14 00:08:58;;;;;;;;;;;17.10;61.00;;;;;;5038744;28;981;-68
2024/01/14 00:11:24;;;;;;;;;;;17.10;61.70;;;;;;5039888;28;1145;-68
2024/01/14 00:13:49;;;;;;;;;;;17.10;61.00;;;;;;5038914;28;1326;-69
2024/01/14 00:16:16;;;;;;;;;;;17.10;61.00;;;;;;5041072;28;1631;-68
2024/01/14 00:18:41;;;;;;;;;;;17.10;61.00;;;;;;5041844;28;1910;-68
2024/01/14 00:21:07;;;;;;;;;;;17.10;61.00;;;;;;5042998;28;1331;-68
2024/01/14 00:23:32;;;;;;;;;;;17.10;61.00;;;;;;5041978;28;1722;-68
2024/01/14 00:25:57;;;;;;;;;;;17.10;61.10;;;;;;5039404;28;1310;-69
2024/01/14 00:28:23;;;;;;;;;;;17.10;61.10;;;;;;5045375;28;1259;-69
2024/01/14 00:30:48;;;;;;;;;;;17.10;61.10;;;;;;5040852;28;1006;-69
2024/01/14 00:33:14;;;;;;;;;;;17.10;61.10;;;;;;5042857;28;1324;-68
2024/01/14 00:35:39;;;;;;;;;;;17.10;61.10;;;;;;5042936;28;1379;-68
2024/01/14 00:38:05;;;;;;;;;;;17.10;61.20;;;;;;5038959;28;1898;-68
2024/01/14 00:40:31;;;;;;;;;;;17.10;61.10;;;;;;5042451;28;1253;-68
2024/01/14 00:42:56;;;;;;;;;;;17.10;61.10;;;;;;5042466;28;1520;-68
2024/01/14 00:45:22;;;;;;;;;;;17.10;61.20;;;;;;5042050;28;1390;-69
2024/01/14 00:47:47;;;;;;;;;;;17.10;61.20;;;;;;5041306;28;1260;-68
2024/01/14 00:50:13;;;;;;;;;;;17.10;61.20;;;;;;5072451;28;1350;-68
2024/01/14 00:52:38;;;;;;;;;;;17.10;61.20;;;;;;5043009;28;1441;-69
2024/01/14 00:55:04;;;;;;;;;;;17.10;61.20;;;;;;5040964;28;1276;-69
2024/01/14 00:57:30;;;;;;;;;;;17.10;61.20;;;;;;5042427;28;1898;-69
2024/01/14 00:59:55;;;;;;;;;;;17.10;61.20;;;;;;5041220;28;1308;-69
2024/01/14 01:02:21;;;;;;;;;;;17.10;61.20;;;;;;5040563;28;1484;-68
2024/01/14 01:04:46;;;;;;;;;;;17.10;61.20;;;;;;5039623;28;1618;-67
2024/01/14 01:07:11;;;;;;;;;;;17.10;61.30;;;;;;5040676;28;1469;-67
2024/01/14 01:09:37;;;;;;;;;;;17.10;61.30;;;;;;5040295;28;1443;-68
2024/01/14 01:12:02;;;;;;;;;;;17.10;61.20;;;;;;5036505;28;1445;-67
2024/01/14 01:14:28;;;;;;;;;;;17.00;61.20;;;;;;5038633;28;1482;-69
2024/01/14 01:16:53;;;;;;;;;;;17.10;61.30;;;;;;5039255;28;1651;-69
2024/01/14 01:19:19;;;;;;;;;;;17.00;61.20;;;;;;5041158;28;1902;-70
2024/01/14 01:21:44;;;;;;;;;;;17.00;61.20;;;;;;5041668;28;1534;-67
2024/01/14 01:24:13;;;;;;;;;;;17.10;61.30;;;;;;5039629;28;1436;-69
2024/01/14 01:26:39;;;;;;;;;;;17.00;61.20;;;;;;5040145;28;1462;-67
2024/01/14 01:29:04;;;;;;;;;;;17.00;61.20;;;;;;5042374;28;1362;-68
2024/01/14 01:31:29;;;;;;;;;;;17.10;61.30;;;;;;5039423;28;1144;-67
2024/01/14 01:33:55;;;;;;;;;;;17.00;61.20;;;;;;5039857;28;1515;-68
2024/01/14 01:36:20;;;;;;;;;;;17.00;61.20;;;;;;5038626;28;1497;-68
2024/01/14 01:38:46;;;;;;;;;;;17.10;61.30;;;;;;5040455;28;1898;-68
2024/01/14 01:41:11;;;;;;;;;;;17.00;61.20;;;;;;5038429;28;1550;-67
2024/01/14 01:43:37;;;;;;;;;;;17.00;61.30;;;;;;5040854;28;1375;-67
2024/01/14 01:46:02;;;;;;;;;;;17.00;61.30;;;;;;5037000;28;1334;-67
2024/01/14 01:48:28;;;;;;;;;;;17.00;61.30;;;;;;5040383;28;1411;-67
2024/01/14 01:50:54;;;;;;;;;;;17.00;61.30;;;;;;5046953;28;1343;-67
2024/01/14 01:53:20;;;;;;;;;;;17.00;61.30;;;;;;5047612;28;1571;-68
2024/01/14 01:55:45;;;;;;;;;;;17.00;61.30;;;;;;5037275;28;1570;-68
2024/01/14 01:58:11;;;;;;;;;;;17.00;61.30;;;;;;5038217;28;1902;-68
2024/01/14 02:00:38;;;;;;;;;;;17.00;61.30;;;;;;5036831;28;1456;-69
2024/01/14 02:03:04;;;;;;;;;;;17.00;61.30;;;;;;5067542;28;1496;-68
2024/01/14 02:05:30;;;;;;;;;;;17.00;61.30;;;;;;5039337;28;1652;-68
2024/01/14 02:07:55;;;;;;;;;;;17.00;61.30;;;;;;5036921;28;1218;-70
2024/01/14 02:10:21;;;;;;;;;;;17.00;61.30;;;;;;5038640;28;1529;-68
2024/01/14 02:12:46;;;;;;;;;;;17.00;61.30;;;;;;5036155;28;1307;-69
2024/01/14 02:15:12;;;;;;;;;;;17.00;61.40;;;;;;5040647;28;1332;-69
2024/01/14 02:17:37;;;;;;;;;;;17.00;61.40;;;;;;5036118;28;1964;-69
2024/01/14 02:20:03;;;;;;;;;;;17.00;61.40;;;;;;5036301;28;1579;-69
2024/01/14 02:22:29;;;;;;;;;;;17.00;61.40;;;;;;5036214;28;1460;-68
2024/01/14 02:24:55;;;;;;;;;;;17.00;61.40;;;;;;5040118;28;1436;-68
2024/01/14 02:27:20;;;;;;;;;;;17.00;61.40;;;;;;5039560;28;1333;-68
2024/01/14 02:29:46;;;;;;;;;;;17.00;61.40;;;;;;5068207;28;1394;-69
2024/01/14 02:32:11;;;;;;;;;;;17.00;61.40;;;;;;5045819;28;1410;-67
2024/01/14 02:34:37;;;;;;;;;;;17.00;61.40;;;;;;5070388;28;1342;-67
2024/01/14 02:37:03;;;;;;;;;;;17.00;61.40;;;;;;5042015;28;1189;-67
2024/01/14 02:39:28;;;;;;;;;;;17.00;61.40;;;;;;5038640;28;1898;-66
2024/01/14 02:41:54;;;;;;;;;;;17.00;61.40;;;;;;5037554;28;1442;-66
2024/01/14 02:44:19;;;;;;;;;;;17.00;61.40;;;;;;5037813;28;1363;-67
2024/01/14 02:46:45;;;;;;;;;;;17.00;61.40;;;;;;5038295;28;1144;-70
2024/01/14 02:49:10;;;;;;;;;;;17.00;61.40;;;;;;5039136;28;1210;-70
2024/01/14 02:51:36;;;;;;;;;;;17.00;61.40;;;;;;5037044;28;1416;-70
2024/01/14 02:54:02;;;;;;;;;;;17.00;61.40;;;;;;5035919;28;1321;-70
2024/01/14 02:56:28;;;;;;;;;;;17.00;61.40;;;;;;5037678;28;1283;-70
2024/01/14 02:58:53;;;;;;;;;;;17.00;61.50;;;;;;5035475;28;1964;-69
2024/01/14 03:01:19;;;;;;;;;;;17.00;61.50;;;;;;5036996;28;1388;-70
2024/01/14 03:03:45;;;;;;;;;;;17.00;61.50;;;;;;5037028;28;1313;-70
2024/01/14 03:06:10;;;;;;;;;;;17.00;61.50;;;;;;5039707;28;1563;-69
2024/01/14 03:08:35;;;;;;;;;;;17.00;61.50;;;;;;5046410;28;1380;-69
2024/01/14 03:11:01;;;;;;;;;;;17.00;61.50;;;;;;5045705;28;1358;-70
2024/01/14 03:13:28;;;;;;;;;;;17.00;61.50;;;;;;5043177;28;1618;-69
2024/01/14 03:15:53;;;;;;;;;;;17.00;61.50;;;;;;5039494;28;1442;-68
2024/01/14 03:18:19;;;;;;;;;;;17.00;61.50;;;;;;5042872;28;1969;-67
2024/01/14 03:20:44;;;;;;;;;;;17.00;61.50;;;;;;5038134;28;1427;-68
2024/01/14 03:23:09;;;;;;;;;;;17.00;61.50;;;;;;5039938;28;898;-67
2024/01/14 03:25:35;;;;;;;;;;;17.00;61.50;;;;;;5038688;28;1328;-69
2024/01/14 03:28:00;;;;;;;;;;;17.00;61.50;;;;;;5036658;28;1365;-69
2024/01/14 03:30:26;;;;;;;;;;;17.00;61.50;;;;;;5039526;28;1279;-69
2024/01/14 03:32:51;;;;;;;;;;;17.00;61.50;;;;;;5039996;28;1457;-69
2024/01/14 03:35:17;;;;;;;;;;;17.00;61.50;;;;;;5035758;28;1585;-69
2024/01/14 03:37:43;;;;;;;;;;;17.00;61.50;;;;;;5041482;28;1890;-69
2024/01/14 03:40:09;;;;;;;;;;;17.00;61.50;;;;;;5040868;28;1447;-69
2024/01/14 03:42:35;;;;;;;;;;;17.00;61.50;;;;;;5039851;28;1647;-69
2024/01/14 03:45:00;;;;;;;;;;;17.00;61.50;;;;;;5035843;28;1364;-69
2024/01/14 03:47:26;;;;;;;;;;;17.00;61.50;;;;;;5066436;28;1442;-69
2024/01/14 03:49:51;;;;;;;;;;;17.00;61.50;;;;;;5068336;28;1576;-69
2024/01/14 03:52:17;;;;;;;;;;;17.00;61.50;;;;;;5038268;28;1488;-69
2024/01/14 03:54:43;;;;;;;;;;;17.00;61.50;;;;;;5067961;28;1465;-69
2024/01/14 03:57:08;;;;;;;;;;;17.00;61.50;;;;;;5038982;28;1582;-69
2024/01/14 03:59:34;;;;;;;;;;;17.00;61.50;;;;;;5040798;28;1902;-69
2024/01/14 04:01:59;;;;;;;;;;;17.00;61.60;;;;;;5037514;28;1585;-69
2024/01/14 04:04:25;;;;;;;;;;;17.00;61.50;;;;;;5040152;28;1510;-69
2024/01/14 04:06:51;;;;;;;;;;;17.00;61.50;;;;;;5039739;28;1480;-69
2024/01/14 04:09:16;;;;;;;;;;;16.90;61.50;;;;;;5042692;28;1235;-69
2024/01/14 04:11:42;;;;;;;;;;;17.00;61.60;;;;;;5043504;28;1781;-69
2024/01/14 04:14:07;;;;;;;;;;;17.00;61.50;;;;;;5041235;28;1383;-70
2024/01/14 04:16:39;;;;;;;;;;;17.00;61.60;;;;;;5041121;28;1436;-69
2024/01/14 04:19:05;;;;;;;;;;;17.00;61.60;;;;;;5073327;28;1956;-70
2024/01/14 04:21:30;;;;;;;;;;;17.00;61.60;;;;;;5040432;28;1471;-69
2024/01/14 04:23:56;;;;;;;;;;;17.00;61.60;;;;;;5039194;28;1644;-69
2024/01/14 04:26:21;;;;;;;;;;;17.00;61.60;;;;;;5041747;28;1728;-69
2024/01/14 04:28:47;;;;;;;;;;;17.00;61.60;;;;;;5044192;28;1410;-69
2024/01/14 04:31:12;;;;;;;;;;;17.00;61.60;;;;;;5072404;28;1431;-69
2024/01/14 04:33:38;;;;;;;;;;;17.00;61.60;;;;;;5074572;28;1721;-69
2024/01/14 04:36:04;;;;;;;;;;;17.00;61.60;;;;;;5072592;28;1618;-69
2024/01/14 04:38:29;;;;;;;;;;;17.00;61.60;;;;;;5039598;28;1957;-69
2024/01/14 04:40:55;;;;;;;;;;;17.00;61.60;;;;;;5042614;28;1508;-69
2024/01/14 04:43:21;;;;;;;;;;;17.00;61.60;;;;;;5074867;28;1626;-69
2024/01/14 04:45:46;;;;;;;;;;;16.90;61.60;;;;;;5041382;28;1366;-69
2024/01/14 04:48:12;;;;;;;;;;;17.00;61.60;;;;;;5042328;28;1565;-69
2024/01/14 04:50:39;;;;;;;;;;;17.00;61.60;;;;;;5039909;28;1384;-69
2024/01/14 04:53:05;;;;;;;;;;;17.00;61.60;;;;;;5041769;28;1670;-69
2024/01/14 04:55:31;;;;;;;;;;;16.90;61.60;;;;;;5042743;28;1277;-69
2024/01/14 04:57:56;;;;;;;;;;;16.90;61.70;;;;;;5040119;28;1957;-69
2024/01/14 05:00:22;;;;;;;;;;;16.90;61.60;;;;;;5038288;28;1596;-67
2024/01/14 05:02:47;;;;;;;;;;;16.90;61.60;;;;;;5037766;28;1372;-67
2024/01/14 05:05:13;;;;;;;;;;;16.90;61.60;;;;;;5043483;28;1544;-68
2024/01/14 05:07:40;;;;;;;;;;;16.90;61.60;;;;;;5072694;28;1696;-69
2024/01/14 05:10:05;;;;;;;;;;;16.90;61.60;;;;;;5041154;28;1439;-68
2024/01/14 05:12:32;;;;;;;;;;;16.90;61.60;;;;;;5038012;28;1227;-68
2024/01/14 05:14:57;;;;;;;;;;;17.00;61.60;;;;;;5043909;28;1538;-68
2024/01/14 05:17:23;;;;;;;;;;;17.00;62.30;;;;;;5036259;28;1910;-68
2024/01/14 05:19:48;;;;;;;;;;;17.00;61.40;;;;;;5039664;28;1432;-68
2024/01/14 05:22:14;;;;;;;;;;;17.00;61.40;;;;;;5037348;28;1463;-68
2024/01/14 05:24:41;;;;;;;;;;;17.00;61.20;;;;;;5039910;28;1507;-68
2024/01/14 05:27:06;;;;;;;;;;;17.10;61.20;;;;;;5071573;28;1487;-68
2024/01/14 05:29:32;;;;;;;;;;;17.10;61.10;;;;;;5037423;28;1654;-68
2024/01/14 05:31:58;;;;;;;;;;;17.10;60.90;;;;;;5040562;28;1528;-69
2024/01/14 05:34:23;;;;;;;;;;;17.20;60.90;;;;;;5037313;28;1581;-69
2024/01/14 05:36:49;;;;;;;;;;;17.20;60.80;;;;;;5039358;28;1286;-68
2024/01/14 05:39:14;;;;;;;;;;;17.20;60.70;;;;;;5038605;28;1994;-68
2024/01/14 05:41:40;;;;;;;;;;;17.30;60.60;;;;;;5036319;28;1384;-67
2024/01/14 05:44:05;;;;;;;;;;;17.30;60.40;;;;;;5040520;28;1307;-68
2024/01/14 05:46:30;;;;;;;;;;;17.30;60.50;;;;;;5039469;28;1338;-68
2024/01/14 05:48:56;;;;;;;;;;;17.30;60.30;;;;;;5040067;28;1021;-67
2024/01/14 05:51:21;;;;;;;;;;;17.40;60.30;;;;;;5040814;28;1444;-68
2024/01/14 05:53:47;;;;;;;;;;;17.40;60.20;;;;;;5039819;28;1341;-68
2024/01/14 05:56:12;;;;;;;;;;;17.40;60.20;;;;;;5037679;28;1077;-68
2024/01/14 05:58:39;;;;;;;;;;;17.40;60.10;;;;;;5039965;28;1961;-69
2024/01/14 06:01:05;;;;;;;;;;;17.40;60.10;;;;;;5068109;28;1568;-68
2024/01/14 06:03:30;;;;;;;;;;;17.40;60.00;;;;;;5039992;28;1387;-69
2024/01/14 06:05:55;;;;;;;;;;;17.40;60.00;;;;;;5041184;28;1269;-67
2024/01/14 06:08:21;;;;;;;;;;;17.50;60.00;;;;;;5040789;28;1254;-68
2024/01/14 06:10:46;;;;;;;;;;;17.40;59.90;;;;;;5039732;28;1391;-68
2024/01/14 06:13:12;;;;;;;;;;;17.50;60.00;;;;;;5037933;28;1264;-67
2024/01/14 06:15:37;;;;;;;;;;;17.40;59.90;;;;;;5039831;28;1495;-68
2024/01/14 06:18:03;;;;;;;;;;;17.50;59.90;;;;;;5036145;28;1914;-67
2024/01/14 06:20:28;;;;;;;;;;;17.50;59.90;;;;;;5036637;28;1529;-70
2024/01/14 06:22:54;;;;;;;;;;;17.50;59.90;;;;;;5041756;28;1616;-68
2024/01/14 06:25:19;;;;;;;;;;;17.50;59.90;;;;;;5040215;28;1355;-68
2024/01/14 06:27:45;;;;;;;;;;;17.50;59.80;;;;;;5039861;28;1790;-68
2024/01/14 06:30:11;;;;;;;;;;;17.50;59.80;;;;;;5070940;28;1502;-68
2024/01/14 06:32:36;;;;;;;;;;;17.50;59.80;;;;;;5037297;28;1589;-67
2024/01/14 06:35:02;;;;;;;;;;;17.50;59.80;;;;;;5038734;28;1485;-68
2024/01/14 06:37:27;;;;;;;;;;;17.50;59.80;;;;;;5038025;28;1952;-67
2024/01/14 06:39:52;;;;;;;;;;;17.50;59.80;;;;;;5040340;28;1305;-67
2024/01/14 06:42:18;;;;;;;;;;;17.50;59.80;;;;;;5042442;28;1519;-67
2024/01/14 06:44:43;;;;;;;;;;;17.50;59.80;;;;;;5038222;28;1541;-68
2024/01/14 06:47:09;;;;;;;;;;;17.50;59.80;;;;;;5041212;28;1316;-68
2024/01/14 06:49:34;;;;;;;;;;;17.50;59.80;;;;;;5037996;28;1362;-67
2024/01/14 06:52:00;;;;;;;;;;;17.50;59.80;;;;;;5038919;28;1443;-68
2024/01/14 06:54:25;;;;;;;;;;;17.50;59.80;;;;;;5038557;28;1525;-68
2024/01/14 06:56:51;;;;;;;;;;;17.50;59.80;;;;;;5038239;28;1240;-67
2024/01/14 06:59:21;;;;;;;;;;;17.50;59.80;;;;;;5037003;28;1906;-67
2024/01/14 07:01:47;;;;;;;;;;;17.50;59.80;;;;;;5037323;28;1357;-69
2024/01/14 07:04:12;;;;;;;;;;;17.50;59.80;;;;;;5040126;28;1412;-70
2024/01/14 07:06:38;;;;;;;;;;;17.50;59.80;;;;;;5038635;28;1269;-70
2024/01/14 07:09:04;;;;;;;;;;;17.50;59.90;;;;;;5039235;28;1341;-70
2024/01/14 07:11:29;;;;;;;;;;;17.50;59.90;;;;;;5038811;28;1457;-70
2024/01/14 07:13:55;;;;;;;;;;;17.50;59.90;;;;;;5039091;28;1512;-68
2024/01/14 07:16:20;;;;;;;;;;;17.50;59.90;;;;;;5069288;28;1838;-68
2024/01/14 07:18:46;;;;;;;;;;;17.40;59.90;;;;;;5037466;28;1981;-68
2024/01/14 07:21:11;;;;;;;;;;;17.50;59.90;;;;;;5045762;28;1410;-69
2024/01/14 07:23:39;;;;;;;;;;;17.40;59.90;;;;;;5036888;28;1411;-69
2024/01/14 07:26:05;;;;;;;;;;;17.40;59.90;;;;;;5039030;28;1459;-69
2024/01/14 07:28:31;;;;;;;;;;;17.40;59.90;;;;;;5038890;28;1366;-69
2024/01/14 07:30:56;;;;;;;;;;;17.40;60.00;;;;;;5039609;28;1494;-70
2024/01/14 07:33:22;;;;;;;;;;;17.40;60.00;;;;;;5038801;28;1530;-68
2024/01/14 07:35:47;;;;;;;;;;;17.40;60.00;;;;;;5038027;28;1311;-70
2024/01/14 07:38:13;;;;;;;;;;;17.40;60.10;;;;;;5041357;28;1984;-67
2024/01/14 07:40:41;;;;;;;;;;;17.40;60.00;;;;;;5037488;28;1522;-70
2024/01/14 07:43:07;;;;;;;;;;;17.40;60.10;;;;;;5041430;28;1475;-69
2024/01/14 07:45:32;;;;;;;;;;;17.40;60.10;;;;;;5044942;28;1288;-69
2024/01/14 07:47:58;;;;;;;;;;;17.40;60.10;;;;;;5041481;28;1380;-68
2024/01/14 07:50:23;;;;;;;;;;;17.40;60.20;;;;;;5043443;28;1665;-68
2024/01/14 07:52:50;;;;;;;;;;;17.40;60.20;;;;;;5043530;28;1567;-68
2024/01/14 07:55:15;;;;;;;;;;;17.40;60.20;;;;;;5043544;28;1300;-68
2024/01/14 07:57:41;;;;;;;;;;;17.30;60.20;;;;;;5042744;28;1959;-68
2024/01/14 08:00:07;;;;;;;;;;;17.40;60.20;;;;;;5037992;28;2191;-69
2024/01/14 08:02:32;;;;;;;;;;;17.40;60.20;;;;;;5042452;28;1372;-69
2024/01/14 08:04:58;;;;;;;;;;;17.40;60.30;;;;;;5040475;28;1464;-68
2024/01/14 08:07:23;;;;;;;;;;;17.40;60.30;;;;;;5038930;28;1638;-68
2024/01/14 08:09:49;;;;;;;;;;;17.40;60.30;;;;;;5044439;28;1456;-69
2024/01/14 08:12:15;;;;;;;;;;;17.30;60.30;;;;;;5041314;28;1489;-68
2024/01/14 08:14:41;;;;;;;;;;;17.30;60.30;;;;;;5042477;28;1485;-69
2024/01/14 08:17:06;;;;;;;;;;;17.30;60.30;;;;;;5041212;28;1244;-68
2024/01/14 08:19:32;;;;;;;;;;;17.30;60.30;;;;;;5038850;28;1914;-69
2024/01/14 08:21:57;;;;;;;;;;;17.30;60.30;;;;;;5042206;28;1236;-69
2024/01/14 08:24:22;;;;;;;;;;;17.30;60.30;;;;;;5039807;28;1418;-68
2024/01/14 08:26:48;;;;;;;;;;;17.30;60.40;;;;;;5038833;28;1332;-67
2024/01/14 08:29:14;;;;;;;;;;;17.30;60.30;;;;;;5042178;28;1348;-69
2024/01/14 08:31:40;;;;;;;;;;;17.40;60.40;;;;;;5040646;28;1583;-69
2024/01/14 08:34:06;;;;;;;;;;;17.30;60.30;;;;;;5072084;28;1292;-67
2024/01/14 08:36:32;;;;;;;;;;;17.30;60.30;;;;;;5041080;28;1443;-69
2024/01/14 08:38:57;;;;;;;;;;;17.40;60.30;;;;;;5042197;28;1902;-69
2024/01/14 08:41:24;;;;;;;;;;;17.40;60.30;;;;;;5040099;28;1436;-68
2024/01/14 08:43:53;;;;;;;;;;;17.40;60.20;;;;;;5037713;28;1311;-69
2024/01/14 08:46:18;;;;;;;;;;;17.40;60.20;;;;;;5046745;28;1109;-69
2024/01/14 08:48:44;;;;;;;;;;;17.40;60.20;;;;;;5074168;28;1036;-69
2024/01/14 08:51:10;;;;;;;;;;;17.40;60.10;;;;;;5039056;28;1373;-68
2024/01/14 08:53:35;;;;;;;;;;;17.40;60.10;;;;;;5073564;28;1371;-69
2024/01/14 08:56:01;;;;;;;;;;;17.40;60.10;;;;;;5040983;28;1350;-66
2024/01/14 08:58:26;;;;;;;;;;;17.40;60.10;;;;;;5038596;28;1974;-68
2024/01/14 09:00:54;;;;;;;;;;;17.40;60.10;;;;;;5038330;28;1477;-69
2024/01/14 09:03:19;;;;;;;;;;;17.40;60.10;;;;;;5040606;28;1525;-69
2024/01/14 09:05:45;;;;;;;;;;;17.40;60.00;;;;;;5048697;28;1385;-68
2024/01/14 09:08:11;;;;;;;;;;;17.40;60.00;;;;;;5040803;28;1506;-69
2024/01/14 09:10:36;;;;;;;;;;;17.40;60.00;;;;;;5072257;28;1846;-69
2024/01/14 09:13:02;;;;;;;;;;;17.40;60.00;;;;;;5037574;28;1340;-67
2024/01/14 09:15:28;;;;;;;;;;;17.40;60.00;;;;;;5037081;28;2046;-68
2024/01/14 09:17:53;;;;;;;;;;;17.50;60.00;;;;;;5038619;28;2096;-69
2024/01/14 09:20:19;;;;;;;;;;;17.40;59.90;;;;;;5075982;28;1873;-68
2024/01/14 09:22:45;;;;;;;;;;;17.50;60.00;;;;;;5038886;28;1439;-69
2024/01/14 09:25:11;;;;;;;;;;;17.50;60.00;;;;;;5035907;28;1455;-69
2024/01/14 09:27:37;;;;;;;;;;;17.50;59.90;;;;;;5047563;28;1481;-69
2024/01/14 09:30:02;;;;;;;;;;;17.50;59.90;;;;;;5035835;28;1557;-68
2024/01/14 09:32:28;;;;;;;;;;;17.50;59.90;;;;;;5046739;28;1435;-67
2024/01/14 09:34:54;;;;;;;;;;;17.50;59.90;;;;;;5022462;28;1492;-69
2024/01/14 09:37:19;;;;;;;;;;;17.50;59.80;;;;;;5038961;28;1250;-69
2024/01/14 09:39:45;;;;;;;;;;;17.50;59.80;;;;;;5040211;28;1898;-69
2024/01/14 09:42:24;;;;;;;;;;;17.50;59.80;;;;;;5040187;28;1256;-69
2024/01/14 09:44:54;;;;;;;;;;;17.50;59.80;;;;;;5038255;28;1482;-69
2024/01/14 09:47:19;;;;;;;;;;;17.50;59.80;;;;;;5035985;28;1461;-69
2024/01/14 09:49:45;;;;;;;;;;;17.50;59.80;;;;;;5041370;28;1399;-68
2024/01/14 09:52:10;;;;;;;;;;;17.50;59.80;;;;;;5037807;28;1278;-67
2024/01/14 09:54:36;;;;;;;;;;;17.60;59.80;;;;;;5039729;28;1484;-69
2024/01/14 09:57:03;;;;;;;;;;;17.50;59.70;;;;;;5038977;28;1295;-68
2024/01/14 09:59:29;;;;;;;;;;;17.50;59.70;;;;;;5038789;28;1898;-68
2024/01/14 10:01:54;;;;;;;;;;;17.50;59.70;;;;;;5039719;28;1522;-69
2024/01/14 10:04:20;;;;;;;;;;;17.60;59.70;;;;;;5036772;28;1603;-69
2024/01/14 10:06:46;;;;;;;;;;;17.50;59.70;;;;;;5039618;28;1612;-68
2024/01/14 10:09:12;;;;;;;;;;;17.60;59.70;;;;;;5040914;28;1577;-68
2024/01/14 10:11:37;;;;;;;;;;;17.60;59.70;;;;;;5070705;28;1544;-68
2024/01/14 10:14:03;;;;;;;;;;;17.60;59.70;;;;;;5039617;28;1431;-68
2024/01/14 10:16:29;;;;;;;;;;;17.60;59.70;;;;;;5038252;28;1274;-69
2024/01/14 10:18:57;;;;;;;;;;;17.60;59.70;;;;;;5038627;28;1914;-69
2024/01/14 10:21:24;;;;;;;;;;;17.60;59.70;;;;;;5040259;28;1453;-67
2024/01/14 10:23:49;;;;;;;;;;;17.60;59.70;;;;;;5039858;28;1374;-68
2024/01/14 10:26:15;;;;;;;;;;;17.60;59.70;;;;;;5036358;28;1436;-68
2024/01/14 10:28:42;;;;;;;;;;;17.60;59.70;;;;;;5038970;28;1516;-68
2024/01/14 10:31:07;;;;;;;;;;;17.60;59.70;;;;;;5034996;28;1402;-68
2024/01/14 10:33:33;;;;;;;;;;;17.60;59.70;;;;;;5069239;28;1449;-69
2024/01/14 10:35:59;;;;;;;;;;;17.60;59.70;;;;;;5068923;28;1445;-68
2024/01/14 10:38:25;;;;;;;;;;;17.60;59.70;;;;;;5069979;28;1973;-69
2024/01/14 10:40:51;;;;;;;;;;;17.60;59.70;;;;;;5039563;28;1508;-69
2024/01/14 10:43:16;;;;;;;;;;;17.60;59.70;;;;;;5038476;28;1610;-69
2024/01/14 10:45:42;;;;;;;;;;;17.60;59.70;;;;;;5037956;28;1664;-67
2024/01/14 10:48:10;;;;;;;;;;;17.60;59.70;;;;;;5038439;28;1407;-68
2024/01/14 10:50:36;;;;;;;;;;;17.60;59.70;;;;;;5046931;28;1291;-68
2024/01/14 10:53:01;;;;;;;;;;;17.60;59.70;;;;;;5069420;28;1135;-68
2024/01/14 10:55:33;;;;;;;;;;;17.60;59.70;;;;;;5053345;28;1613;-68
2024/01/14 10:57:59;;;;;;;;;;;17.60;59.70;;;;;;5045992;28;1907;-68
2024/01/14 11:00:24;;;;;;;;;;;17.60;59.70;;;;;;5037222;28;1553;-67
2024/01/14 11:02:50;;;;;;;;;;;17.60;59.70;;;;;;5036937;28;1517;-68
2024/01/14 11:05:16;;;;;;;;;;;17.60;59.70;;;;;;5045785;28;1435;-69
2024/01/14 11:07:41;;;;;;;;;;;17.60;59.70;;;;;;5046671;28;1487;-69
2024/01/14 11:10:12;;;;;;;;;;;17.60;59.70;;;;;;5037895;28;1535;-67
2024/01/14 11:12:46;;;;;;;;;;;17.60;59.70;;;;;;5036711;28;1528;-69
2024/01/14 11:15:12;;;;;;;;;;;17.60;59.70;;;;;;5071685;28;1629;-67
2024/01/14 11:17:56;;;;;;;;;;;17.60;59.70;;;;;;5041051;28;1993;-67
2024/01/14 11:20:23;;;;;;;;;;;17.60;59.70;;;;;;5045908;28;1318;-67
2024/01/14 11:22:50;;;;;;;;;;;17.60;59.70;;;;;;5060348;28;1350;-68
2024/01/14 11:25:16;;;;;;;;;;;17.60;59.70;;;;;;5043128;28;2283;-68
2024/01/14 11:27:41;;;;;;;;;;;17.60;59.80;;;;;;5044135;28;1437;-68
2024/01/14 11:30:08;;;;;;;;;;;17.50;59.70;;;;;;5040405;28;1119;-67
2024/01/14 11:32:34;;;;;;;;;;;17.50;59.70;;;;;;5071945;28;919;-68
2024/01/14 11:35:02;;;;;;;;;;;17.60;59.80;;;;;;5041596;28;1288;-67
2024/01/14 11:37:33;;;;;;;;;;;17.60;59.80;;;;;;5072218;28;1180;-68
2024/01/14 11:40:05;;;;;;;;;;;17.60;59.80;;;;;;5042294;28;1961;-68
2024/01/14 11:42:31;;;;;;;;;;;17.50;59.70;;;;;;5040000;28;1445;-68
2024/01/14 11:44:56;;;;;;;;;;;17.50;59.70;;;;;;5041931;28;1492;-67
2024/01/14 11:47:34;;;;;;;;;;;17.50;59.70;;;;;;5044162;28;1612;-68
2024/01/14 11:49:59;;;;;;;;;;;17.50;59.70;;;;;;5074298;28;1286;-67
2024/01/14 11:52:25;;;;;;;;;;;17.50;59.80;;;;;;5037724;28;1295;-68
2024/01/14 11:54:50;;;;;;;;;;;17.50;59.80;;;;;;5073204;28;2260;-68
2024/01/14 11:57:20;;;;;;;;;;;17.60;59.80;;;;;;5040675;28;1500;-68
2024/01/14 11:59:46;;;;;;;;;;;17.50;59.80;;;;;;5043344;28;1949;-67
2024/01/14 12:02:15;;;;;;;;;;;17.50;59.80;;;;;;5041868;28;1531;-67
2024/01/14 12:04:40;;;;;;;;;;;17.50;59.80;;;;;;5038722;28;1373;-68
2024/01/14 12:07:06;;;;;;;;;;;17.50;59.80;;;;;;5039070;28;1479;-68
2024/01/14 12:09:31;;;;;;;;;;;17.50;59.80;;;;;;5039535;28;1699;-67
2024/01/14 12:11:57;;;;;;;;;;;17.50;59.80;;;;;;5042025;28;1549;-67
2024/01/14 12:14:22;;;;;;;;;;;17.50;59.80;;;;;;5040642;28;1755;-68
2024/01/14 12:16:48;;;;;;;;;;;17.50;59.80;;;;;;5042645;28;1351;-68
2024/01/14 12:19:18;;;;;;;;;;;17.50;59.80;;;;;;5039815;28;1951;-67
2024/01/14 12:21:43;;;;;;;;;;;17.50;59.80;;;;;;5041005;28;1914;-68
2024/01/14 12:24:10;;;;;;;;;;;17.50;59.80;;;;;;5043255;28;1315;-68
2024/01/14 12:26:35;;;;;;;;;;;17.50;59.80;;;;;;5040984;28;1423;-68
2024/01/14 12:29:01;;;;;;;;;;;17.50;59.80;;;;;;5040967;28;1294;-69
2024/01/14 12:31:26;;;;;;;;;;;17.50;60.40;;;;;;5068764;28;1885;-68
2024/01/14 12:33:52;;;;;;;;;;;17.50;59.70;;;;;;5039144;28;1535;-68
2024/01/14 12:36:18;;;;;;;;;;;17.60;59.70;;;;;;5039328;28;1354;-68
2024/01/14 12:38:43;;;;;;;;;;;17.60;59.70;;;;;;5071933;28;1963;-68
2024/01/14 12:41:09;;;;;;;;;;;17.60;59.70;;;;;;5038102;28;1452;-68
2024/01/14 12:43:35;;;;;;;;;;;17.60;59.70;;;;;;5072189;28;1394;-69
2024/01/14 12:46:01;;;;;;;;;;;17.60;59.70;;;;;;5038934;28;1508;-69
2024/01/14 12:48:27;;;;;;;;;;;17.60;59.70;;;;;;5040747;28;1522;-69
2024/01/14 12:50:56;;;;;;;;;;;17.60;59.70;;;;;;5041617;28;1550;-68
2024/01/14 12:53:22;;;;;;;;;;;17.60;59.70;;;;;;5040022;28;1170;-68
2024/01/14 12:55:48;;;;;;;;;;;17.50;59.70;;;;;;5048502;28;1705;-68
2024/01/14 12:58:14;;;;;;;;;;;17.60;59.80;;;;;;5040946;28;1963;-68
2024/01/14 13:00:40;;;;;;;;;;;17.60;59.80;;;;;;5039723;28;1486;-68
2024/01/14 13:03:09;;;;;;;;;;;17.50;59.80;;;;;;5040095;28;1171;-68
2024/01/14 13:05:35;;;;;;;;;;;17.50;59.80;;;;;;5039962;28;1484;-68
2024/01/14 13:08:00;;;;;;;;;;;17.50;59.90;;;;;;5047650;28;1278;-68
2024/01/14 13:10:26;;;;;;;;;;;17.50;59.90;;;;;;5040840;28;1237;-68
2024/01/14 13:12:51;;;;;;;;;;;17.50;59.90;;;;;;5037738;28;1527;-68
2024/01/14 13:15:17;;;;;;;;;;;17.50;59.90;;;;;;5071525;28;1284;-67
2024/01/14 13:17:42;;;;;;;;;;;17.50;59.90;;;;;;5025005;28;1973;-68
2024/01/14 13:20:08;;;;;;;;;;;17.50;59.90;;;;;;5072008;28;1200;-67
2024/01/14 13:22:33;;;;;;;;;;;17.50;59.90;;;;;;5041216;28;1484;-67
2024/01/14 13:24:59;;;;;;;;;;;17.50;59.90;;;;;;5038396;28;1469;-67
2024/01/14 13:27:25;;;;;;;;;;;17.50;59.90;;;;;;5039106;28;1629;-67
2024/01/14 13:29:50;;;;;;;;;;;17.50;59.90;;;;;;5071424;28;1504;-68
2024/01/14 13:32:19;;;;;;;;;;;17.50;59.90;;;;;;5074642;28;1249;-66
2024/01/14 13:34:44;;;;;;;;;;;17.50;59.90;;;;;;5040229;28;1367;-67
2024/01/14 13:37:10;;;;;;;;;;;17.50;59.90;;;;;;5037782;28;1292;-66
2024/01/14 13:39:38;;;;;;;;;;;17.50;59.90;;;;;;5039536;28;1874;-67
2024/01/14 13:42:05;;;;;;;;;;;17.50;59.90;;;;;;5068557;28;1258;-67
2024/01/14 13:44:30;;;;;;;;;;;17.50;59.90;;;;;;5041326;28;1323;-67
2024/01/14 13:46:56;;;;;;;;;;;17.50;59.90;;;;;;5069034;28;1583;-68
2024/01/14 13:49:24;;;;;;;;;;;17.50;60.60;;;;;;5069887;28;1247;-70
2024/01/14 13:51:49;;;;;;;;;;;17.50;59.90;;;;;;5038733;28;1634;-69
2024/01/14 13:54:15;;;;;;;;;;;17.50;60.60;;;;;;5037749;28;1424;-68
2024/01/14 13:56:41;;;;;;;;;;;17.50;59.80;;;;;;5036926;28;1565;-68
2024/01/14 13:59:08;;;;;;;;;;;17.50;59.80;;;;;;5023438;28;1906;-68
2024/01/14 14:01:33;;;;;;;;;;;17.50;59.80;;;;;;5040689;28;1768;-69
2024/01/14 14:04:00;;;;;;;;;;;17.50;59.90;;;;;;5070737;28;1318;-69
2024/01/14 14:06:25;;;;;;;;;;;17.50;59.80;;;;;;5038259;28;1322;-70
2024/01/14 14:08:52;;;;;;;;;;;17.50;59.80;;;;;;5036426;28;1306;-68
2024/01/14 14:11:18;;;;;;;;;;;17.60;59.90;;;;;;5039148;28;888;-68
2024/01/14 14:13:43;;;;;;;;;;;17.50;59.80;;;;;;5039271;28;1303;-69
2024/01/14 14:16:09;;;;;;;;;;;17.50;59.80;;;;;;5070999;28;1507;-69
2024/01/14 14:18:34;;;;;;;;;;;17.50;59.80;;;;;;5040377;28;1926;-70
2024/01/14 14:21:00;;;;;;;;;;;17.60;59.80;;;;;;5038855;28;1287;-69
2024/01/14 14:23:25;;;;;;;;;;;17.50;59.70;;;;;;5037523;28;1301;-69